Time;durP1;ratioP1;P1;durP2;ratioP2;P2;SDS_P1;SDS_P2;PMS_P1;PMS_P2;Temp;Humidity;BMP_temperature;BMP_pressure;BME280_temperature;BME280_humidity;BME280_pressure;Samples;Min_cycle;Max_cycle;Signal;HPM_P1;HPM_P2
2022/11/10 00:01:05;;;;;;;8.77;2.37;;;10.40;99.90;;;;;;5063677;28;20288;-55
2022/11/10 00:03:33;;;;;;;11.67;2.70;;;10.40;99.90;;;;;;5066262;28;20639;-55
2022/11/10 00:06:02;;;;;;;12.27;2.27;;;10.40;99.90;;;;;;5064373;28;20606;-55
2022/11/10 00:08:29;;;;;;;7.20;2.30;;;10.40;99.90;;;;;;5059973;28;20240;-54
2022/11/10 00:10:57;;;;;;;7.10;2.40;;;10.40;99.90;;;;;;5062506;28;20630;-54
2022/11/10 00:13:25;;;;;;;7.47;2.27;;;10.30;99.90;;;;;;5064008;28;20279;-54
2022/11/10 00:18:38;;;;;;;5.77;2.53;;;10.30;99.90;;;;;;5061350;28;20209;-55
2022/11/10 00:21:07;;;;;;;5.87;1.83;;;10.30;99.90;;;;;;5062105;28;20297;-55
2022/11/10 00:23:34;;;;;;;7.47;2.10;;;10.30;99.90;;;;;;5074706;28;20210;-54
2022/11/10 00:26:02;;;;;;;7.33;2.50;;;10.40;99.90;;;;;;5070798;28;20263;-54
2022/11/10 00:28:30;;;;;;;7.93;2.40;;;10.30;99.90;;;;;;5068098;28;20289;-54
2022/11/10 00:30:58;;;;;;;9.37;2.73;;;10.30;99.90;;;;;;5061255;28;20236;-54
2022/11/10 00:33:25;;;;;;;5.97;2.50;;;10.30;99.90;;;;;;5063768;28;20193;-55
2022/11/10 00:35:51;;;;;;;11.70;2.63;;;10.30;99.90;;;;;;5070747;28;20225;-54
2022/11/10 00:38:18;;;;;;;6.30;2.27;;;10.30;99.90;;;;;;5064523;28;20205;-54
2022/11/10 00:40:46;;;;;;;7.37;2.53;;;10.30;99.90;;;;;;5070672;28;20891;-54
2022/11/10 00:43:13;;;;;;;16.63;2.37;;;10.20;99.90;;;;;;5062331;28;20295;-54
2022/11/10 00:45:42;;;;;;;8.97;2.43;;;10.30;99.90;;;;;;5068151;28;20526;-54
2022/11/10 00:48:09;;;;;;;8.40;2.43;;;10.30;99.90;;;;;;5060355;28;20211;-55
2022/11/10 00:50:36;;;;;;;6.60;2.07;;;10.30;99.90;;;;;;5062829;28;20260;-54
2022/11/10 00:53:03;;;;;;;6.07;2.03;;;10.20;99.90;;;;;;5063884;28;20196;-54
2022/11/10 00:55:29;;;;;;;9.00;2.57;;;10.20;99.90;;;;;;5070401;28;20653;-54
2022/11/10 00:57:56;;;;;;;7.77;2.20;;;10.20;99.90;;;;;;5062562;28;20259;-54
2022/11/10 01:00:23;;;;;;;8.43;2.27;;;10.30;99.90;;;;;;5060945;28;20194;-54
2022/11/10 01:02:50;;;;;;;9.93;2.33;;;10.20;99.90;;;;;;5062119;28;20198;-54
2022/11/10 01:05:16;;;;;;;9.10;2.33;;;10.20;99.90;;;;;;5063749;28;20197;-54
2022/11/10 01:07:43;;;;;;;9.93;2.53;;;10.20;99.90;;;;;;5060278;28;20208;-54
2022/11/10 01:10:10;;;;;;;9.97;2.43;;;10.20;99.90;;;;;;5057791;28;20236;-54
2022/11/10 01:12:37;;;;;;;10.10;3.03;;;10.20;99.90;;;;;;5062384;28;20207;-54
2022/11/10 01:15:05;;;;;;;10.67;2.80;;;10.20;99.90;;;;;;5058755;28;20202;-54
2022/11/10 01:17:31;;;;;;;8.47;3.43;;;10.20;99.90;;;;;;5069729;28;20263;-54
2022/11/10 01:19:58;;;;;;;6.63;2.27;;;10.20;99.90;;;;;;5062665;28;20227;-54
2022/11/10 01:22:25;;;;;;;6.53;2.27;;;10.30;99.90;;;;;;5062326;28;20202;-54
2022/11/10 01:24:52;;;;;;;11.03;2.27;;;10.20;99.90;;;;;;5063294;28;20572;-55
2022/11/10 01:27:19;;;;;;;8.67;2.23;;;10.20;99.90;;;;;;5068153;28;20203;-54
2022/11/10 01:29:46;;;;;;;9.37;2.93;;;10.20;99.90;;;;;;5058930;28;20252;-55
2022/11/10 01:32:12;;;;;;;14.73;3.93;;;10.10;99.90;;;;;;5060961;28;20198;-55
2022/11/10 01:34:39;;;;;;;7.53;2.20;;;10.10;99.90;;;;;;5063138;28;20641;-55
2022/11/10 01:37:06;;;;;;;7.77;2.77;;;10.10;99.90;;;;;;5061491;28;20880;-58
2022/11/10 01:39:33;;;;;;;8.87;2.33;;;10.20;99.90;;;;;;5061815;28;20680;-55
2022/11/10 01:42:00;;;;;;;7.23;2.50;;;10.20;99.90;;;;;;5067874;28;20686;-55
2022/11/10 01:44:26;;;;;;;8.70;2.53;;;10.10;99.90;;;;;;5060274;28;20195;-55
2022/11/10 01:46:54;;;;;;;6.40;2.20;;;10.10;99.90;;;;;;5063755;28;20214;-55
2022/11/10 01:49:24;;;;;;;7.83;2.53;;;10.10;99.90;;;;;;5067662;28;20202;-55
2022/11/10 01:52:06;;;;;;;9.60;2.70;;;10.10;99.90;;;;;;5061076;28;20203;-55
2022/11/10 01:54:38;;;;;;;10.30;2.93;;;10.10;99.90;;;;;;5066745;28;20882;-55
2022/11/10 01:57:08;;;;;;;10.33;2.80;;;10.00;99.90;;;;;;5063801;28;20358;-55
2022/11/10 01:59:42;;;;;;;11.47;3.00;;;10.00;99.90;;;;;;5063879;28;20285;-55
2022/11/10 02:02:16;;;;;;;8.43;2.57;;;10.00;99.90;;;;;;5056572;28;20274;-55
2022/11/10 02:04:43;;;;;;;11.40;2.77;;;10.00;99.90;;;;;;5067818;28;20295;-55
2022/11/10 02:07:11;;;;;;;11.70;2.83;;;10.00;99.90;;;;;;5063820;28;20517;-55
2022/11/10 02:09:38;;;;;;;10.47;2.73;;;10.10;99.90;;;;;;5061122;28;20277;-55
2022/11/10 02:12:05;;;;;;;9.70;2.53;;;10.10;99.90;;;;;;5062464;28;20292;-55
2022/11/10 02:14:32;;;;;;;11.43;2.43;;;10.00;99.90;;;;;;5057646;28;20720;-55
2022/11/10 02:16:59;;;;;;;7.90;2.43;;;10.00;99.90;;;;;;5056073;28;20233;-54
2022/11/10 02:19:26;;;;;;;10.07;2.67;;;10.00;99.90;;;;;;5059347;28;20209;-55
2022/11/10 02:21:53;;;;;;;8.97;2.90;;;10.00;99.90;;;;;;5057330;28;20642;-55
2022/11/10 02:24:20;;;;;;;6.87;2.53;;;10.00;99.90;;;;;;5055391;28;20201;-55
2022/11/10 02:26:54;;;;;;;10.17;2.43;;;10.00;99.90;;;;;;5057021;28;20206;-55
2022/11/10 02:29:22;;;;;;;6.83;2.60;;;10.00;99.90;;;;;;5063774;28;20591;-55
2022/11/10 02:31:49;;;;;;;12.00;2.93;;;10.00;99.90;;;;;;5060215;28;20194;-63
2022/11/10 02:34:16;;;;;;;9.20;2.73;;;10.00;99.90;;;;;;5063835;28;20262;-55
2022/11/10 02:36:43;;;;;;;7.97;2.20;;;10.00;99.90;;;;;;5059129;28;20215;-55
2022/11/10 02:39:09;;;;;;;14.20;3.47;;;10.00;99.90;;;;;;5059968;28;20199;-54
2022/11/10 02:41:36;;;;;;;13.83;2.80;;;10.00;99.90;;;;;;5062448;28;20205;-55
2022/11/10 02:44:04;;;;;;;9.57;2.27;;;9.90;99.90;;;;;;5074593;28;20202;-54
2022/11/10 02:46:31;;;;;;;9.10;3.00;;;9.90;99.90;;;;;;5060112;28;20193;-54
2022/11/10 02:48:58;;;;;;;6.93;2.23;;;9.90;99.90;;;;;;5068157;28;20557;-55
2022/11/10 02:51:24;;;;;;;8.17;2.33;;;9.90;99.90;;;;;;5063470;28;20514;-54
2022/11/10 02:53:51;;;;;;;9.87;2.73;;;9.90;99.90;;;;;;5063944;28;20272;-55
2022/11/10 02:56:18;;;;;;;11.97;2.87;;;9.90;99.90;;;;;;5063618;28;20299;-54
2022/11/10 02:58:45;;;;;;;6.87;2.40;;;9.90;99.90;;;;;;5065788;28;20257;-55
2022/11/10 03:01:12;;;;;;;9.90;2.47;;;9.80;99.90;;;;;;5061399;28;20193;-54
2022/11/10 03:03:38;;;;;;;7.00;2.40;;;9.90;99.90;;;;;;5055982;28;20927;-54
2022/11/10 03:06:05;;;;;;;10.73;3.20;;;9.90;99.90;;;;;;5054165;28;20209;-54
2022/11/10 03:08:32;;;;;;;10.33;3.13;;;9.80;99.90;;;;;;5062105;28;20329;-54
2022/11/10 03:10:59;;;;;;;9.43;2.97;;;9.80;99.90;;;;;;5056441;28;20237;-54
2022/11/10 03:13:26;;;;;;;9.27;2.53;;;9.80;99.90;;;;;;5055163;28;20231;-54
2022/11/10 03:16:10;;;;;;;5.93;2.50;;;9.90;99.90;;;;;;5053780;28;20230;-56
2022/11/10 03:18:37;;;;;;;7.43;2.40;;;9.90;99.90;;;;;;5059578;28;20556;-54
2022/11/10 03:21:04;;;;;;;7.07;2.57;;;9.90;99.90;;;;;;5059845;28;20224;-54
2022/11/10 03:23:32;;;;;;;8.43;3.03;;;9.90;99.90;;;;;;5061003;28;20214;-55
2022/11/10 03:26:02;;;;;;;8.10;2.30;;;9.90;99.90;;;;;;5055082;28;20588;-55
2022/11/10 03:28:29;;;;;;;10.17;2.03;;;9.90;99.90;;;;;;5063553;28;20200;-55
2022/11/10 03:30:56;;;;;;;7.17;2.70;;;9.90;99.90;;;;;;5064820;28;20225;-54
2022/11/10 03:33:23;;;;;;;11.60;2.30;;;9.90;99.90;;;;;;5067177;28;20687;-55
2022/11/10 03:35:50;;;;;;;9.83;2.63;;;9.90;99.90;;;;;;5070221;28;20198;-55
2022/11/10 03:38:17;;;;;;;10.53;3.00;;;9.90;99.90;;;;;;5064209;28;20208;-55
2022/11/10 03:40:44;;;;;;;10.47;2.70;;;9.90;99.90;;;;;;5065625;28;20532;-55
2022/11/10 03:43:30;;;;;;;6.67;2.13;;;9.80;99.90;;;;;;5063875;28;20686;-55
2022/11/10 03:45:57;;;;;;;9.97;2.43;;;9.90;99.90;;;;;;5070667;28;20201;-55
2022/11/10 03:48:24;;;;;;;8.43;2.40;;;9.80;99.90;;;;;;5061851;28;20610;-55
2022/11/10 03:50:51;;;;;;;6.87;2.07;;;9.80;99.90;;;;;;5062649;28;20311;-54
2022/11/10 03:53:17;;;;;;;10.37;2.23;;;9.80;99.90;;;;;;5066833;28;20305;-54
2022/11/10 03:55:45;;;;;;;10.77;2.30;;;9.80;99.90;;;;;;5064483;28;20207;-55
2022/11/10 03:58:11;;;;;;;12.03;2.53;;;9.80;99.90;;;;;;5073078;28;20299;-55
2022/11/10 04:00:38;;;;;;;8.20;2.50;;;9.80;99.90;;;;;;5063385;28;20837;-54
2022/11/10 04:03:05;;;;;;;8.53;2.37;;;9.80;99.90;;;;;;5067168;28;20213;-56
2022/11/10 04:11:03;;;;;;;10.00;2.77;;;9.70;99.90;;;;;;5060898;28;20227;-54
2022/11/10 04:16:15;;;;;;;6.90;1.87;;;9.70;99.90;;;;;;5061161;28;20285;-54
2022/11/10 04:18:42;;;;;;;8.47;1.93;;;9.70;99.90;;;;;;5068527;28;20219;-54
2022/11/10 04:21:08;;;;;;;5.67;2.27;;;9.70;99.90;;;;;;5064561;28;20196;-55
2022/11/10 04:23:35;;;;;;;6.10;2.00;;;9.70;99.90;;;;;;5062685;28;20293;-53
2022/11/10 04:26:28;;;;;;;11.43;2.63;;;9.70;99.90;;;;;;5062264;28;20225;-55
2022/11/10 04:29:00;;;;;;;9.93;1.93;;;9.70;99.90;;;;;;5074154;28;20265;-53
2022/11/10 04:31:30;;;;;;;7.50;2.00;;;9.70;99.90;;;;;;5062926;28;20282;-54
2022/11/10 04:33:57;;;;;;;9.90;2.30;;;9.70;99.90;;;;;;5067465;28;20210;-54
2022/11/10 04:36:30;;;;;;;12.87;2.47;;;9.70;99.90;;;;;;5064467;28;20215;-55
2022/11/10 04:38:57;;;;;;;8.27;2.23;;;9.70;99.90;;;;;;5059855;28;20214;-54
2022/11/10 04:41:31;;;;;;;11.73;2.43;;;9.70;99.90;;;;;;5065804;28;20190;-53
2022/11/10 04:43:59;;;;;;;13.30;2.43;;;9.80;99.90;;;;;;5058014;28;20208;-56
2022/11/10 04:46:37;;;;;;;16.10;3.23;;;9.70;99.90;;;;;;5063254;28;20575;-55
2022/11/10 04:49:06;;;;;;;11.60;2.10;;;9.80;99.90;;;;;;5066189;28;20256;-55
2022/11/10 04:51:35;;;;;;;10.23;2.10;;;9.80;99.90;;;;;;5066985;28;20295;-55
2022/11/10 04:54:04;;;;;;;7.63;2.17;;;9.70;99.90;;;;;;5066673;28;20570;-55
2022/11/10 04:56:31;;;;;;;7.73;2.13;;;9.80;99.90;;;;;;5065425;28;20203;-54
2022/11/10 04:58:58;;;;;;;8.00;2.43;;;9.80;99.90;;;;;;5065214;28;20218;-54
2022/11/10 05:01:26;;;;;;;7.33;2.27;;;9.70;99.90;;;;;;5063763;28;20198;-55
2022/11/10 05:03:54;;;;;;;9.80;2.17;;;9.70;99.90;;;;;;5068932;28;20205;-55
2022/11/10 05:06:21;;;;;;;16.07;2.90;;;9.70;99.90;;;;;;5062066;28;20207;-55
2022/11/10 05:08:48;;;;;;;6.90;1.90;;;9.70;99.90;;;;;;5068717;28;20226;-55
2022/11/10 05:11:18;;;;;;;12.93;2.33;;;9.70;99.90;;;;;;5079630;28;20306;-54
2022/11/10 05:13:45;;;;;;;5.37;2.40;;;9.60;99.90;;;;;;5059282;28;20563;-54
2022/11/10 05:16:12;;;;;;;12.57;2.30;;;9.70;99.90;;;;;;5064353;28;20204;-55
2022/11/10 05:18:40;;;;;;;9.77;2.70;;;9.70;99.90;;;;;;5066487;28;20308;-55
2022/11/10 05:21:07;;;;;;;8.90;2.70;;;9.60;99.90;;;;;;5066971;28;20205;-54
2022/11/10 05:23:36;;;;;;;12.07;2.20;;;9.60;99.90;;;;;;5066978;28;20224;-55
2022/11/10 05:26:17;;;;;;;9.67;3.23;;;9.60;99.90;;;;;;5060547;28;20290;-54
2022/11/10 05:28:45;;;;;;;9.07;2.20;;;9.60;99.90;;;;;;5065021;28;20208;-53
2022/11/10 05:31:12;;;;;;;8.17;2.00;;;9.70;99.90;;;;;;5072541;28;20379;-54
2022/11/10 05:33:39;;;;;;;14.33;2.30;;;9.60;99.90;;;;;;5065760;28;20205;-54
2022/11/10 05:36:07;;;;;;;12.33;2.30;;;9.60;99.90;;;;;;5070893;28;20197;-55
2022/11/10 05:38:34;;;;;;;8.40;1.97;;;9.60;99.90;;;;;;5075661;28;20248;-54
2022/11/10 05:41:09;;;;;;;13.30;2.93;;;9.60;99.90;;;;;;5067992;28;20196;-55
2022/11/10 05:43:35;;;;;;;11.33;2.00;;;9.60;99.90;;;;;;5073517;28;20188;-54
2022/11/10 05:46:02;;;;;;;8.73;3.20;;;9.60;99.90;;;;;;5075997;28;20824;-54
2022/11/10 05:48:29;;;;;;;11.00;2.33;;;9.60;99.90;;;;;;5076363;28;20216;-55
2022/11/10 05:50:56;;;;;;;12.63;3.00;;;9.60;99.90;;;;;;5065753;28;20295;-54
2022/11/10 05:53:23;;;;;;;9.27;1.87;;;9.60;99.90;;;;;;5066967;28;20672;-54
2022/11/10 05:55:50;;;;;;;7.37;3.07;;;9.60;99.90;;;;;;5067965;28;20224;-54
2022/11/10 05:58:17;;;;;;;8.57;2.27;;;9.70;99.90;;;;;;5059966;28;20230;-54
2022/11/10 06:00:43;;;;;;;14.70;4.30;;;9.70;99.90;;;;;;5066337;28;20228;-54
2022/11/10 06:03:16;;;;;;;8.33;1.90;;;9.60;99.90;;;;;;5060887;28;20207;-54
2022/11/10 06:05:44;;;;;;;8.93;2.37;;;9.70;99.90;;;;;;5058530;28;20358;-54
2022/11/10 06:08:11;;;;;;;7.70;2.00;;;9.70;99.90;;;;;;5065353;28;20196;-54
2022/11/10 06:10:39;;;;;;;9.33;2.40;;;9.70;99.90;;;;;;5066008;28;20323;-55
2022/11/10 06:13:06;;;;;;;7.53;2.23;;;9.70;99.90;;;;;;5066032;28;20216;-55
2022/11/10 06:15:33;;;;;;;6.93;2.13;;;9.60;99.90;;;;;;5066578;28;20581;-54
2022/11/10 06:17:59;;;;;;;9.50;2.27;;;9.60;99.90;;;;;;5065620;28;20299;-54
2022/11/10 06:20:26;;;;;;;12.50;2.50;;;9.70;99.90;;;;;;5064699;28;20201;-54
2022/11/10 06:23:13;;;;;;;8.70;1.90;;;9.60;99.90;;;;;;5068878;28;20214;-54
2022/11/10 06:25:40;;;;;;;11.60;2.20;;;9.60;99.90;;;;;;5065155;28;20618;-55
2022/11/10 06:28:08;;;;;;;10.80;2.03;;;9.60;99.90;;;;;;5067385;28;20214;-55
2022/11/10 06:30:36;;;;;;;6.90;1.57;;;9.60;99.90;;;;;;5065720;28;20673;-55
2022/11/10 06:33:03;;;;;;;6.90;2.30;;;9.60;99.90;;;;;;5067984;28;20556;-55
2022/11/10 06:35:30;;;;;;;14.23;2.30;;;9.50;99.90;;;;;;5064503;28;20194;-54
2022/11/10 06:38:06;;;;;;;15.03;3.37;;;9.50;99.90;;;;;;5065857;28;20601;-54
2022/11/10 06:40:33;;;;;;;15.57;2.63;;;9.50;99.90;;;;;;5060842;28;20686;-55
2022/11/10 06:43:00;;;;;;;8.60;2.10;;;9.50;99.90;;;;;;5063991;28;20229;-54
2022/11/10 06:45:27;;;;;;;12.83;2.67;;;9.50;99.90;;;;;;5066276;28;20236;-57
2022/11/10 06:48:01;;;;;;;9.30;2.20;;;9.50;99.90;;;;;;5062349;28;20218;-54
2022/11/10 06:50:28;;;;;;;8.83;2.20;;;9.40;99.90;;;;;;5062740;28;20788;-56
2022/11/10 06:52:59;;;;;;;8.00;2.20;;;9.50;99.90;;;;;;5061613;28;20196;-54
2022/11/10 06:55:26;;;;;;;7.33;2.10;;;9.50;99.90;;;;;;5064592;28;20225;-54
2022/11/10 06:57:53;;;;;;;10.33;2.40;;;9.50;99.90;;;;;;5057207;28;20206;-54
2022/11/10 07:00:21;;;;;;;7.60;2.77;;;9.50;99.90;;;;;;4694397;28;9999950;-54
2022/11/10 07:02:56;;;;;;;10.27;2.70;;;9.50;99.90;;;;;;5053229;28;20225;-54
2022/11/10 07:05:23;;;;;;;10.43;2.20;;;9.50;99.90;;;;;;5056612;28;20288;-54
2022/11/10 07:07:51;;;;;;;10.50;3.30;;;9.50;99.90;;;;;;5056797;28;20510;-54
2022/11/10 07:10:17;;;;;;;8.60;2.47;;;9.50;99.90;;;;;;5062099;28;20218;-53
2022/11/10 07:12:44;;;;;;;11.53;2.57;;;9.50;99.90;;;;;;5055618;28;20196;-54
2022/11/10 07:15:11;;;;;;;8.20;2.37;;;9.50;99.90;;;;;;5058970;28;20253;-56
2022/11/10 07:17:39;;;;;;;11.07;2.67;;;9.60;99.90;;;;;;5062579;28;20289;-54
2022/11/10 07:20:07;;;;;;;14.23;2.30;;;9.60;99.90;;;;;;5065955;28;20216;-54
2022/11/10 07:22:34;;;;;;;7.03;2.10;;;9.60;99.90;;;;;;5060821;28;20206;-54
2022/11/10 07:25:00;;;;;;;12.97;2.30;;;9.60;99.90;;;;;;5060047;28;20225;-54
2022/11/10 07:27:27;;;;;;;11.70;2.30;;;9.70;99.90;;;;;;5061102;28;20224;-54
2022/11/10 07:29:54;;;;;;;8.10;2.50;;;9.70;99.90;;;;;;5049855;28;20201;-54
2022/11/10 07:32:20;;;;;;;14.17;2.30;;;9.70;99.90;;;;;;5056228;28;20652;-54
2022/11/10 07:34:47;;;;;;;10.50;2.33;;;9.80;99.90;;;;;;5055156;28;20287;-55
2022/11/10 07:37:14;;;;;;;7.00;2.50;;;9.70;99.90;;;;;;5061812;28;20205;-54
2022/11/10 07:39:41;;;;;;;8.23;2.43;;;9.80;99.90;;;;;;5060979;28;21304;-54
2022/11/10 07:42:07;;;;;;;4.23;2.10;;;9.80;99.90;;;;;;5064034;28;20279;-54
2022/11/10 07:44:34;;;;;;;8.80;2.07;;;9.90;99.90;;;;;;5059793;28;20291;-55
2022/11/10 07:47:01;;;;;;;9.20;2.17;;;10.00;99.90;;;;;;5055930;28;20193;-56
2022/11/10 07:49:28;;;;;;;10.03;2.23;;;10.00;99.90;;;;;;5055513;28;20200;-56
2022/11/10 07:51:54;;;;;;;19.20;2.90;;;10.00;99.90;;;;;;5061335;28;20217;-55
2022/11/10 07:54:21;;;;;;;7.80;2.20;;;10.00;99.90;;;;;;5067800;28;20283;-56
2022/11/10 07:56:48;;;;;;;8.60;2.47;;;10.10;99.90;;;;;;5055995;28;20250;-55
2022/11/10 07:59:15;;;;;;;12.03;2.20;;;10.20;99.90;;;;;;5063748;28;20214;-56
2022/11/10 08:01:42;;;;;;;10.53;2.87;;;10.20;99.90;;;;;;5059318;28;20199;-53
2022/11/10 08:04:08;;;;;;;9.67;2.70;;;10.30;99.90;;;;;;5060896;28;20656;-54
2022/11/10 08:06:36;;;;;;;10.00;2.33;;;10.30;99.90;;;;;;5059538;28;20199;-56
2022/11/10 08:09:03;;;;;;;11.57;3.00;;;10.40;99.90;;;;;;5059330;28;20223;-55
2022/11/10 08:11:30;;;;;;;11.20;2.33;;;10.40;99.90;;;;;;5061740;28;20244;-55
2022/11/10 08:13:56;;;;;;;8.17;2.37;;;10.40;99.90;;;;;;5057893;28;21151;-54
2022/11/10 08:16:23;;;;;;;11.47;2.77;;;10.50;99.90;;;;;;5060115;28;20693;-57
2022/11/10 08:18:50;;;;;;;13.10;2.70;;;10.50;99.90;;;;;;5066763;28;20301;-55
2022/11/10 08:21:17;;;;;;;6.37;1.90;;;10.70;99.90;;;;;;5056129;28;20290;-54
2022/11/10 08:23:43;;;;;;;10.80;2.23;;;10.80;99.90;;;;;;5063389;28;20211;-55
2022/11/10 08:26:10;;;;;;;9.33;2.37;;;10.90;99.90;;;;;;5061259;28;20241;-54
2022/11/10 08:28:37;;;;;;;6.77;1.90;;;11.00;99.90;;;;;;5066494;28;20289;-54
2022/11/10 08:31:07;;;;;;;12.73;2.57;;;11.00;99.90;;;;;;5061446;28;20217;-55
2022/11/10 08:33:34;;;;;;;6.07;2.00;;;11.00;99.90;;;;;;5052515;28;20287;-55
2022/11/10 08:36:01;;;;;;;9.20;2.87;;;11.10;99.90;;;;;;5058005;28;20376;-54
2022/11/10 08:38:28;;;;;;;14.87;2.47;;;11.10;99.90;;;;;;5059332;28;21036;-55
2022/11/10 08:40:56;;;;;;;10.00;2.40;;;11.20;99.90;;;;;;5053939;28;20485;-54
2022/11/10 08:43:23;;;;;;;12.83;3.30;;;11.20;99.90;;;;;;5059070;28;20202;-54
2022/11/10 08:45:54;;;;;;;10.47;2.80;;;11.30;99.90;;;;;;5057047;28;20204;-54
2022/11/10 08:48:21;;;;;;;6.87;2.10;;;11.30;99.90;;;;;;5057581;28;20199;-54
2022/11/10 08:50:49;;;;;;;6.47;2.33;;;11.40;99.90;;;;;;5060452;28;20191;-54
2022/11/10 08:53:19;;;;;;;8.57;2.00;;;11.50;99.90;;;;;;5064220;28;20587;-54
2022/11/10 08:55:47;;;;;;;12.73;2.53;;;11.70;99.90;;;;;;5056213;28;20328;-54
2022/11/10 08:58:17;;;;;;;12.77;2.63;;;11.90;99.90;;;;;;5054422;28;20622;-54
2022/11/10 09:00:44;;;;;;;11.50;2.10;;;12.10;99.90;;;;;;5063804;28;20259;-55
2022/11/10 09:03:13;;;;;;;14.97;2.63;;;12.10;99.90;;;;;;5066216;28;20214;-54
2022/11/10 09:05:41;;;;;;;7.73;2.20;;;12.30;99.90;;;;;;5062933;28;20282;-55
2022/11/10 09:08:08;;;;;;;9.30;2.13;;;12.40;99.90;;;;;;5066272;28;20231;-55
2022/11/10 09:10:38;;;;;;;9.87;1.93;;;12.60;99.90;;;;;;5065650;28;20218;-60
2022/11/10 09:13:05;;;;;;;8.90;2.10;;;12.70;99.90;;;;;;5067558;28;20338;-55
2022/11/10 09:15:33;;;;;;;12.83;3.30;;;12.60;99.90;;;;;;5061681;28;20651;-54
2022/11/10 09:18:01;;;;;;;10.43;2.37;;;12.60;99.90;;;;;;5069932;28;20207;-58
2022/11/10 09:20:30;;;;;;;9.07;2.20;;;12.80;99.90;;;;;;5060101;28;20214;-54
2022/11/10 09:23:23;;;;;;;8.87;2.27;;;12.60;99.90;;;;;;5082540;28;20188;-54
2022/11/10 09:25:53;;;;;;;12.23;2.57;;;12.60;99.90;;;;;;5072057;28;20239;-53
2022/11/10 09:28:21;;;;;;;11.00;2.63;;;12.70;99.90;;;;;;5065701;28;20209;-54
2022/11/10 09:30:50;;;;;;;7.33;2.50;;;13.00;99.90;;;;;;5061925;28;20255;-58
2022/11/10 09:33:18;;;;;;;13.00;2.73;;;12.90;99.90;;;;;;5069778;28;20285;-55
2022/11/10 09:35:45;;;;;;;11.60;2.50;;;13.10;99.90;;;;;;5062713;28;20225;-55
2022/11/10 09:38:11;;;;;;;8.57;2.27;;;13.00;99.90;;;;;;5071211;28;20561;-55
2022/11/10 09:40:47;;;;;;;6.47;2.70;;;13.10;99.90;;;;;;5070924;28;20222;-57
2022/11/10 09:43:27;;;;;;;9.60;2.70;;;13.30;99.90;;;;;;5058047;28;20210;-55
2022/11/10 09:45:59;;;;;;;8.33;2.37;;;13.20;99.90;;;;;;5067455;28;20577;-57
2022/11/10 09:48:34;;;;;;;9.47;2.50;;;13.00;99.90;;;;;;5054859;28;20287;-54
2022/11/10 09:51:06;;;;;;;8.53;2.53;;;13.10;99.90;;;;;;5055352;28;20228;-55
2022/11/10 09:53:41;;;;;;;11.83;2.67;;;13.20;99.90;;;;;;5070074;28;20221;-55
2022/11/10 09:56:15;;;;;;;9.60;2.53;;;13.40;99.90;;;;;;5060284;28;20631;-55
2022/11/10 09:58:45;;;;;;;5.30;2.40;;;13.50;99.90;;;;;;5064323;28;20216;-55
2022/11/10 10:01:47;;;;;;;6.77;2.17;;;13.30;99.90;;;;;;5061156;28;20620;-55
2022/11/10 10:04:29;;;;;;;10.53;2.77;;;13.40;99.90;;;;;;5038497;28;20627;-55
2022/11/10 10:07:21;;;;;;;8.47;2.30;;;13.40;99.90;;;;;;5060725;28;20282;-58
2022/11/10 10:10:12;;;;;;;7.43;2.30;;;13.40;99.90;;;;;;5057423;28;20327;-55
2022/11/10 10:12:56;;;;;;;9.93;2.40;;;13.70;99.90;;;;;;5057789;28;20202;-55
2022/11/10 10:15:30;;;;;;;11.30;2.10;;;13.60;99.90;;;;;;5065112;28;20204;-55
2022/11/10 10:17:57;;;;;;;12.37;2.30;;;13.70;99.90;;;;;;5066582;28;20209;-55
2022/11/10 10:20:46;;;;;;;13.50;2.27;;;13.90;99.90;;;;;;5062543;28;20225;-53
2022/11/10 10:23:31;;;;;;;10.50;2.13;;;13.60;99.90;;;;;;5067672;28;20571;-55
2022/11/10 10:26:23;;;;;;;6.23;1.90;;;13.60;99.90;;;;;;5075697;28;20314;-56
2022/11/10 10:28:50;;;;;;;9.47;3.40;;;13.70;99.90;;;;;;5063082;28;20198;-55
2022/11/10 10:31:27;;;;;;;9.07;2.80;;;13.70;99.90;;;;;;5066329;28;20282;-55
2022/11/10 10:33:54;;;;;;;11.00;2.13;;;13.70;99.90;;;;;;5065431;28;20199;-56
2022/11/10 10:36:27;;;;;;;13.17;2.53;;;13.90;99.90;;;;;;5066103;28;20266;-55
2022/11/10 10:39:15;;;;;;;8.47;2.57;;;14.20;99.90;;;;;;5061834;28;20205;-55
2022/11/10 10:41:44;;;;;;;8.77;2.27;;;14.20;99.90;;;;;;5065238;28;20205;-55
2022/11/10 10:44:17;;;;;;;13.87;2.63;;;14.30;99.90;;;;;;5060730;28;20196;-55
2022/11/10 10:47:04;;;;;;;5.60;1.97;;;14.40;99.90;;;;;;5056409;28;20197;-55
2022/11/10 10:49:35;;;;;;;12.60;2.00;;;14.60;99.90;;;;;;5063855;28;20831;-55
2022/11/10 10:52:10;;;;;;;8.80;1.80;;;14.70;99.90;;;;;;5062443;28;20594;-55
2022/11/10 10:54:38;;;;;;;6.97;2.00;;;14.60;99.90;;;;;;5063685;28;20204;-55
2022/11/10 10:57:28;;;;;;;8.33;2.17;;;14.50;99.90;;;;;;5049276;28;20202;-54
2022/11/10 11:00:21;;;;;;;4.47;1.70;;;14.50;99.90;;;;;;5055183;28;20242;-55
2022/11/10 11:03:03;;;;;;;8.43;1.90;;;14.40;99.90;;;;;;5058080;28;20752;-55
2022/11/10 11:05:30;;;;;;;13.03;2.20;;;14.30;99.90;;;;;;5052920;28;21326;-60
2022/11/10 11:08:00;;;;;;;6.03;1.80;;;14.40;99.90;;;;;;5062769;28;20666;-61
2022/11/10 11:10:27;;;;;;;7.07;3.07;;;14.60;99.90;;;;;;5052924;28;20289;-55
2022/11/10 11:12:54;;;;;;;6.33;1.70;;;14.60;99.90;;;;;;5058721;28;20328;-56
2022/11/10 11:15:28;;;;;;;10.70;2.33;;;14.70;99.90;;;;;;5042291;28;20207;-61
2022/11/10 11:17:57;;;;;;;8.53;1.67;;;14.80;99.90;;;;;;5046832;28;20221;-56
2022/11/10 11:20:36;;;;;;;10.80;2.13;;;14.90;99.90;;;;;;5054058;28;20211;-54
2022/11/10 11:23:37;;;;;;;4.80;1.50;;;15.00;99.90;;;;;;5056750;28;20340;-55
2022/11/10 11:26:18;;;;;;;4.17;1.30;;;15.40;99.90;;;;;;5049180;28;20257;-54
2022/11/10 11:29:15;;;;;;;13.13;1.87;;;15.30;99.90;;;;;;5047590;28;20196;-55
2022/11/10 11:31:57;;;;;;;6.57;1.93;;;15.30;99.90;;;;;;5050669;28;20196;-57
2022/11/10 11:34:51;;;;;;;9.10;2.00;;;15.00;99.90;;;;;;5046093;28;20200;-57
2022/11/10 11:37:24;;;;;;;7.83;1.70;;;14.80;99.90;;;;;;5036765;28;20243;-57
2022/11/10 11:40:22;;;;;;;5.37;1.87;;;14.70;99.90;;;;;;5050321;28;20548;-56
2022/11/10 11:42:49;;;;;;;9.50;1.50;;;14.80;99.90;;;;;;5053974;28;20342;-54
2022/11/10 11:45:29;;;;;;;8.60;2.00;;;14.80;99.90;;;;;;5058920;28;20309;-55
2022/11/10 11:48:25;;;;;;;5.70;1.40;;;14.70;99.90;;;;;;5054431;28;20195;-56
2022/11/10 11:51:17;;;;;;;9.17;2.00;;;14.70;99.90;;;;;;5050377;28;20295;-55
2022/11/10 11:54:19;;;;;;;9.00;1.90;;;15.00;99.90;;;;;;5055312;28;20286;-54
2022/11/10 11:56:49;;;;;;;7.73;1.60;;;15.10;99.90;;;;;;5024823;28;20220;-54
2022/11/10 11:59:40;;;;;;;7.67;1.63;;;15.10;99.90;;;;;;5057865;28;20292;-54
2022/11/10 12:02:28;;;;;;;7.63;1.27;;;15.30;99.90;;;;;;5060742;28;20283;-55
2022/11/10 12:05:14;;;;;;;7.43;1.40;;;15.50;99.90;;;;;;5069620;28;20211;-55
2022/11/10 12:08:15;;;;;;;7.93;2.10;;;15.60;99.90;;;;;;5067020;28;20293;-55
2022/11/10 12:10:51;;;;;;;6.20;1.33;;;15.50;99.90;;;;;;5056605;28;20218;-55
2022/11/10 12:13:21;;;;;;;7.63;1.67;;;15.70;99.90;;;;;;5052250;28;20684;-55
2022/11/10 12:15:50;;;;;;;9.97;1.80;;;15.80;99.90;;;;;;5059065;28;20507;-55
2022/11/10 12:18:56;;;;;;;7.83;1.70;;;15.90;99.90;;;;;;5063379;28;20196;-54
2022/11/10 12:21:25;;;;;;;7.23;1.40;;;15.80;99.90;;;;;;5055148;28;20679;-55
2022/11/10 12:24:18;;;;;;;8.23;1.50;;;15.50;99.90;;;;;;5060518;28;20651;-55
2022/11/10 12:26:48;;;;;;;6.83;1.60;;;15.80;99.90;;;;;;5062659;28;20924;-55
2022/11/10 12:29:57;;;;;;;7.13;2.07;;;15.50;99.90;;;;;;5056904;28;20196;-55
2022/11/10 12:32:47;;;;;;;4.33;1.53;;;15.50;99.90;;;;;;5054481;28;20222;-55
2022/11/10 12:35:25;;;;;;;10.23;2.03;;;15.60;99.90;;;;;;5057368;28;20219;-55
2022/11/10 12:38:04;;;;;;;5.97;1.33;;;15.90;99.90;;;;;;5059256;28;20286;-55
2022/11/10 12:40:42;;;;;;;7.97;1.40;;;16.20;99.90;;;;;;5061590;28;20690;-56
2022/11/10 12:43:24;;;;;;;5.47;1.63;;;16.40;99.90;;;;;;5061766;28;20236;-55
2022/11/10 12:45:56;;;;;;;6.50;1.30;;;16.30;99.90;;;;;;5063523;28;20238;-55
2022/11/10 12:48:24;;;;;;;9.00;1.30;;;16.10;99.90;;;;;;5063256;28;20690;-56
2022/11/10 12:51:11;;;;;;;9.23;1.70;;;15.90;99.90;;;;;;5059481;28;20209;-55
2022/11/10 12:53:41;;;;;;;8.43;1.63;;;16.20;99.90;;;;;;5058626;28;20796;-55
2022/11/10 12:56:27;;;;;;;6.57;1.30;;;16.20;99.90;;;;;;5062887;28;20291;-55
2022/11/10 12:59:47;;;;;;;5.87;1.10;;;16.20;99.90;;;;;;5059617;28;20199;-54
2022/11/10 13:02:32;;;;;;;8.37;1.70;;;16.10;99.90;;;;;;5021164;28;20216;-55
2022/11/10 13:05:21;;;;;;;6.07;1.53;;;16.00;99.90;;;;;;5018331;28;20259;-55
2022/11/10 13:07:50;;;;;;;8.50;1.70;;;15.80;99.90;;;;;;5014674;28;20273;-55
2022/11/10 13:10:17;;;;;;;7.70;1.50;;;15.80;99.90;;;;;;5015671;28;20227;-55
2022/11/10 13:12:59;;;;;;;6.07;1.40;;;15.70;99.90;;;;;;5018791;28;20721;-55
2022/11/10 13:15:56;;;;;;;8.87;1.50;;;15.70;99.90;;;;;;5014206;28;20209;-55
2022/11/10 13:18:28;;;;;;;8.70;1.20;;;15.50;99.90;;;;;;5018073;28;20280;-55
2022/11/10 13:20:55;;;;;;;7.67;1.23;;;15.60;99.90;;;;;;5016303;28;20226;-55